X  Close Metar Aviation Weather Data     KSWO Stillwater Regional Airport
Temperature
25°C Temperature
18°C Dewpoint
65% Humidity



Wind
19 KM/H
12 MPH
5 M/S
10 KTS



190°
S
Current Conditions

Clear Clear
Pressure 1005.12 (hPa) - 29.68 (inHg)
Visibility 10 (mile) - 16.1 (km)
Airport
Airport-code KSWO

Location: Stillwater Regional Airport
Distance: 4 (km)

Metar:
KSWO 191453Z 19010KT 10SM CLR 25/18 A2968 RMK AO2 SLP036 T02500178 50010

Time: 05-19-2022 9:53 am CDT